Time;durP1;ratioP1;P1;durP2;ratioP2;P2;SDS_P1;SDS_P2;PMS_P1;PMS_P2;Temp;Humidity;BMP_temperature;BMP_pressure;BME280_temperature;BME280_humidity;BME280_pressure;Samples;Min_cycle;Max_cycle;Signal;HPM_P1;HPM_P2
2021/12/14 00:01:48;;;;;;;26.08;13.80;;;;;;;;;;5053229;28;20057;-80
2021/12/14 00:04:25;;;;;;;29.88;13.70;;;;;;;;;;5045220;28;20085;-79
2021/12/14 00:06:52;;;;;;;25.83;13.25;;;;;;;;;;5047325;28;20109;-80
2021/12/14 00:09:26;;;;;;;23.98;13.68;;;;;;;;;;5059770;28;20057;-80
2021/12/14 00:12:13;;;;;;;28.45;13.88;;;;;;;;;;5051929;28;20085;-80
2021/12/14 00:17:13;;;;;;;23.90;13.60;;;;;;;;;;5043318;28;20505;-80
2021/12/14 00:19:40;;;;;;;26.67;13.95;;;;;;;;;;5042813;28;20112;-79
2021/12/14 00:22:19;;;;;;;27.38;14.85;;;;;;;;;;5052913;28;20057;-81
2021/12/14 00:24:46;;;;;;;27.33;14.95;;;;;;;;;;5045912;28;20106;-79
2021/12/14 00:27:14;;;;;;;29.15;14.57;;;;;;;;;;5049439;28;20103;-80
2021/12/14 00:29:43;;;;;;;27.13;14.98;;;;;;;;;;5050525;28;20141;-79
2021/12/14 00:32:14;;;;;;;28.52;14.02;;;;;;;;;;5043406;28;20089;-79
2021/12/14 00:34:42;;;;;;;26.02;14.45;;;;;;;;;;5045792;28;20502;-79
2021/12/14 00:37:15;;;;;;;28.00;15.40;;;;;;;;;;5051201;28;20054;-79
2021/12/14 00:39:42;;;;;;;30.48;15.95;;;;;;;;;;5052845;28;20069;-80
2021/12/14 00:42:09;;;;;;;31.30;15.68;;;;;;;;;;5045988;28;20073;-79
2021/12/14 00:44:36;;;;;;;31.30;15.48;;;;;;;;;;5058471;28;20100;-80
2021/12/14 00:47:03;;;;;;;31.77;16.48;;;;;;;;;;5037269;28;20501;-80
2021/12/14 00:49:30;;;;;;;31.55;16.42;;;;;;;;;;5040568;28;20072;-79
2021/12/14 00:51:56;;;;;;;28.73;15.27;;;;;;;;;;5043697;28;20064;-80
2021/12/14 00:54:23;;;;;;;32.38;16.77;;;;;;;;;;5052030;28;20042;-79
2021/12/14 00:56:50;;;;;;;31.48;15.75;;;;;;;;;;5052560;28;20056;-80
2021/12/14 00:59:18;;;;;;;30.50;16.05;;;;;;;;;;5046340;28;20574;-80
2021/12/14 01:01:49;;;;;;;31.30;15.93;;;;;;;;;;5045356;28;20355;-79
2021/12/14 01:04:26;;;;;;;34.22;16.10;;;;;;;;;;5043937;28;20065;-80
2021/12/14 01:06:52;;;;;;;32.17;16.75;;;;;;;;;;5051443;28;20100;-79
2021/12/14 01:09:22;;;;;;;30.75;16.10;;;;;;;;;;5043894;28;20076;-79
2021/12/14 01:11:49;;;;;;;31.53;15.63;;;;;;;;;;5051794;28;20077;-79
2021/12/14 01:14:22;;;;;;;30.95;17.10;;;;;;;;;;5043009;28;20058;-81
2021/12/14 01:16:54;;;;;;;34.70;16.52;;;;;;;;;;5052201;28;20060;-79
2021/12/14 01:19:27;;;;;;;30.35;16.08;;;;;;;;;;5041721;28;20053;-79
2021/12/14 01:25:00;;;;;;;30.95;16.02;;;;;;;;;;5041972;28;20077;-80
2021/12/14 01:27:39;;;;;;;29.17;15.32;;;;;;;;;;5045073;28;20050;-79
2021/12/14 01:30:14;;;;;;;31.63;16.67;;;;;;;;;;5048722;28;20054;-79
2021/12/14 01:32:44;;;;;;;34.03;16.17;;;;;;;;;;5044840;28;20056;-80
2021/12/14 01:35:13;;;;;;;31.65;15.95;;;;;;;;;;5043122;28;20127;-80
2021/12/14 01:37:49;;;;;;;38.25;17.23;;;;;;;;;;5051253;28;20107;-79
2021/12/14 01:40:30;;;;;;;32.88;16.48;;;;;;;;;;5043695;28;20822;-80
2021/12/14 01:42:57;;;;;;;34.10;16.73;;;;;;;;;;5045774;28;20053;-80
2021/12/14 01:45:24;;;;;;;36.38;17.35;;;;;;;;;;5047518;28;20899;-80
2021/12/14 01:47:53;;;;;;;33.80;17.40;;;;;;;;;;5047175;28;20104;-80
2021/12/14 01:50:32;;;;;;;32.35;15.88;;;;;;;;;;5044553;28;20054;-80
2021/12/14 01:52:58;;;;;;;32.47;16.90;;;;;;;;;;5042870;28;20398;-79
2021/12/14 01:55:27;;;;;;;32.78;16.45;;;;;;;;;;5049776;28;20119;-79
2021/12/14 01:57:55;;;;;;;38.47;17.67;;;;;;;;;;5043586;28;20057;-80
2021/12/14 02:00:25;;;;;;;34.35;16.42;;;;;;;;;;5042210;28;20092;-79
2021/12/14 02:02:51;;;;;;;33.73;16.90;;;;;;;;;;5042561;28;20112;-79
2021/12/14 02:05:23;;;;;;;36.58;18.15;;;;;;;;;;5043672;28;20432;-80
2021/12/14 02:07:50;;;;;;;33.67;17.05;;;;;;;;;;5051602;28;20062;-79
2021/12/14 02:10:22;;;;;;;32.42;17.45;;;;;;;;;;5044789;28;20084;-80
2021/12/14 02:12:48;;;;;;;37.10;17.58;;;;;;;;;;5048662;28;20089;-79
2021/12/14 02:15:18;;;;;;;39.25;18.30;;;;;;;;;;5043626;28;20064;-80
2021/12/14 02:17:44;;;;;;;35.65;17.77;;;;;;;;;;5050326;28;20097;-81
2021/12/14 02:20:13;;;;;;;33.92;17.67;;;;;;;;;;5045966;28;20081;-79
2021/12/14 02:22:39;;;;;;;37.28;17.77;;;;;;;;;;5051281;28;20080;-79
2021/12/14 02:25:07;;;;;;;38.88;18.27;;;;;;;;;;5047649;28;20069;-79
2021/12/14 02:27:37;;;;;;;38.65;18.33;;;;;;;;;;5044040;28;20061;-81
2021/12/14 02:30:06;;;;;;;39.42;17.88;;;;;;;;;;5038469;28;20057;-81
2021/12/14 02:32:33;;;;;;;39.47;18.52;;;;;;;;;;5036775;28;20085;-79
2021/12/14 02:35:00;;;;;;;37.60;18.95;;;;;;;;;;5040313;28;20077;-80
2021/12/14 02:37:35;;;;;;;40.35;19.05;;;;;;;;;;5049857;28;20050;-79
2021/12/14 02:40:15;;;;;;;40.20;19.00;;;;;;;;;;5038027;28;20054;-80
2021/12/14 02:42:41;;;;;;;39.25;17.73;;;;;;;;;;5040296;28;20089;-79
2021/12/14 02:45:08;;;;;;;39.72;18.40;;;;;;;;;;5039163;28;20054;-79
2021/12/14 02:47:34;;;;;;;37.38;18.17;;;;;;;;;;5041642;28;20085;-79
2021/12/14 02:50:02;;;;;;;36.38;18.42;;;;;;;;;;5046167;28;20088;-79
2021/12/14 02:52:34;;;;;;;38.80;17.90;;;;;;;;;;5040532;28;20151;-80
2021/12/14 02:55:07;;;;;;;37.95;18.17;;;;;;;;;;5043949;28;20054;-79
2021/12/14 02:57:35;;;;;;;40.40;17.90;;;;;;;;;;5049127;28;20187;-80
2021/12/14 03:00:04;;;;;;;39.15;18.15;;;;;;;;;;5045116;28;20107;-80
2021/12/14 03:02:31;;;;;;;40.17;18.33;;;;;;;;;;5048089;28;20679;-80
2021/12/14 03:04:59;;;;;;;41.45;18.42;;;;;;;;;;5042171;28;20061;-79
2021/12/14 03:07:29;;;;;;;37.50;18.02;;;;;;;;;;5042456;28;20050;-80
2021/12/14 03:10:05;;;;;;;39.37;18.17;;;;;;;;;;5049190;28;20061;-80
2021/12/14 03:12:41;;;;;;;38.80;18.67;;;;;;;;;;5046755;28;20088;-79
2021/12/14 03:15:08;;;;;;;41.33;19.10;;;;;;;;;;5044837;28;20033;-79
2021/12/14 03:17:34;;;;;;;39.08;17.50;;;;;;;;;;5041690;28;20081;-80
2021/12/14 03:20:06;;;;;;;40.17;16.88;;;;;;;;;;5047664;28;20049;-79
2021/12/14 03:22:42;;;;;;;43.85;19.50;;;;;;;;;;5049843;28;20067;-79
2021/12/14 03:25:09;;;;;;;40.55;18.75;;;;;;;;;;5048785;28;20360;-79
2021/12/14 03:27:37;;;;;;;35.42;17.60;;;;;;;;;;5045400;28;20053;-79
2021/12/14 03:30:12;;;;;;;37.70;18.25;;;;;;;;;;5046194;28;20072;-81
2021/12/14 03:32:38;;;;;;;41.05;18.20;;;;;;;;;;5047186;28;20085;-79
2021/12/14 03:35:05;;;;;;;38.13;19.02;;;;;;;;;;5042379;28;20058;-80
2021/12/14 03:37:31;;;;;;;39.78;19.05;;;;;;;;;;5053889;28;20116;-80
2021/12/14 03:39:59;;;;;;;41.30;18.95;;;;;;;;;;5043457;28;20096;-80
2021/12/14 03:42:35;;;;;;;37.75;17.40;;;;;;;;;;5043081;28;20090;-79
2021/12/14 03:45:03;;;;;;;43.10;19.98;;;;;;;;;;5048516;28;20085;-81
2021/12/14 03:47:32;;;;;;;38.97;19.30;;;;;;;;;;5048985;28;20214;-80
2021/12/14 03:50:08;;;;;;;40.58;18.92;;;;;;;;;;5049543;28;20093;-80
2021/12/14 03:52:35;;;;;;;38.83;18.77;;;;;;;;;;5044566;28;20081;-80
2021/12/14 03:55:08;;;;;;;38.45;17.73;;;;;;;;;;5050219;28;20103;-80
2021/12/14 03:57:34;;;;;;;35.30;17.65;;;;;;;;;;5043860;28;20049;-78
2021/12/14 04:00:03;;;;;;;41.72;18.77;;;;;;;;;;5051024;28;20049;-81
2021/12/14 04:02:30;;;;;;;39.15;18.33;;;;;;;;;;5043503;28;20049;-79
2021/12/14 04:05:05;;;;;;;35.53;17.75;;;;;;;;;;5044350;28;20084;-79
2021/12/14 04:07:33;;;;;;;37.22;17.63;;;;;;;;;;5048837;28;20050;-79
2021/12/14 04:09:59;;;;;;;36.42;17.05;;;;;;;;;;5041388;28;21076;-79
2021/12/14 04:12:26;;;;;;;37.25;18.52;;;;;;;;;;5042339;28;20053;-79
2021/12/14 04:14:54;;;;;;;40.25;18.50;;;;;;;;;;5043424;28;20100;-79
2021/12/14 04:17:21;;;;;;;34.50;17.05;;;;;;;;;;5043917;28;20065;-79
2021/12/14 04:19:48;;;;;;;37.88;17.65;;;;;;;;;;5049667;28;20100;-79
2021/12/14 04:22:17;;;;;;;40.10;17.45;;;;;;;;;;5044246;28;20123;-80
2021/12/14 04:24:44;;;;;;;37.80;17.73;;;;;;;;;;5051382;28;20088;-79
2021/12/14 04:27:12;;;;;;;36.92;17.98;;;;;;;;;;5051447;28;20115;-79
2021/12/14 04:29:39;;;;;;;41.10;18.13;;;;;;;;;;5041643;28;20208;-79
2021/12/14 04:32:07;;;;;;;39.75;18.88;;;;;;;;;;5047644;28;20116;-79
2021/12/14 04:34:33;;;;;;;38.10;17.77;;;;;;;;;;5049790;28;20042;-80
2021/12/14 04:37:01;;;;;;;38.95;18.08;;;;;;;;;;5042088;28;20112;-80
2021/12/14 04:39:35;;;;;;;39.25;18.35;;;;;;;;;;5043443;28;20135;-80
2021/12/14 04:53:30;;;;;;;39.03;17.85;;;;;;;;;;5042673;28;20054;-79
2021/12/14 04:55:56;;;;;;;40.80;18.85;;;;;;;;;;5038211;28;20037;-80
2021/12/14 04:58:31;;;;;;;37.33;17.38;;;;;;;;;;5050943;28;20061;-80
2021/12/14 05:00:58;;;;;;;36.80;17.63;;;;;;;;;;5004685;28;1037942;-81
2021/12/14 05:03:34;;;;;;;37.35;17.88;;;;;;;;;;5051808;28;20143;-79
2021/12/14 05:06:19;;;;;;;38.90;17.90;;;;;;;;;;5046042;28;20405;-80
2021/12/14 05:11:16;;;;;;;35.75;17.15;;;;;;;;;;5045766;28;20939;-80
2021/12/14 05:13:54;;;;;;;37.78;17.70;;;;;;;;;;5047468;28;20107;-79
2021/12/14 05:16:22;;;;;;;39.20;18.08;;;;;;;;;;5040473;28;20050;-80
2021/12/14 05:18:53;;;;;;;38.95;17.70;;;;;;;;;;5048513;28;20046;-81
2021/12/14 05:21:19;;;;;;;;;;;;;;;;;;5045257;28;20053;-79
2021/12/14 05:23:45;;;;;;;34.03;14.82;;;;;;;;;;5041715;28;47199;-80
2021/12/14 05:26:14;;;;;;;36.53;16.85;;;;;;;;;;5044016;28;20111;-80
2021/12/14 05:28:42;;;;;;;37.05;16.17;;;;;;;;;;5048465;28;20164;-81
2021/12/14 05:31:09;;;;;;;35.90;16.45;;;;;;;;;;5043024;28;20081;-80
2021/12/14 05:33:36;;;;;;;34.15;16.60;;;;;;;;;;5043230;28;20304;-79
2021/12/14 05:36:08;;;;;;;42.22;22.25;;;;;;;;;;5041071;28;20054;-79
2021/12/14 05:38:47;;;;;;;32.67;16.45;;;;;;;;;;5051259;28;20832;-80
2021/12/14 05:44:01;;;;;;;38.85;19.48;;;;;;;;;;5043563;28;20465;-80
2021/12/14 05:46:28;;;;;;;38.00;18.90;;;;;;;;;;5046134;28;20825;-80
2021/12/14 05:48:59;;;;;;;39.33;19.45;;;;;;;;;;5048518;28;20560;-79
2021/12/14 05:51:27;;;;;;;36.60;17.10;;;;;;;;;;5051070;28;20497;-80
2021/12/14 05:53:53;;;;;;;34.38;16.63;;;;;;;;;;5043660;28;20990;-81
2021/12/14 05:56:21;;;;;;;34.60;16.02;;;;;;;;;;5043079;28;20100;-80
2021/12/14 05:58:51;;;;;;;34.53;17.48;;;;;;;;;;5044323;28;20053;-81
2021/12/14 06:01:20;;;;;;;39.00;16.75;;;;;;;;;;5042889;28;20071;-82
2021/12/14 06:03:53;;;;;;;37.17;17.63;;;;;;;;;;5039444;28;20085;-81
2021/12/14 06:06:22;;;;;;;35.33;17.02;;;;;;;;;;5047179;28;20974;-81
2021/12/14 06:08:48;;;;;;;34.13;17.27;;;;;;;;;;5044548;28;20565;-82
2021/12/14 06:11:19;;;;;;;33.13;16.35;;;;;;;;;;5047743;28;20041;-81
2021/12/14 06:13:46;;;;;;;37.92;17.63;;;;;;;;;;5039784;28;20058;-81
2021/12/14 06:16:23;;;;;;;33.05;15.98;;;;;;;;;;5038447;28;20096;-82
2021/12/14 06:18:49;;;;;;;35.42;17.75;;;;;;;;;;5051311;28;20427;-81
2021/12/14 06:21:18;;;;;;;35.10;17.17;;;;;;;;;;5043481;28;20049;-81
2021/12/14 06:23:44;;;;;;;36.50;18.30;;;;;;;;;;5045739;28;20176;-81
2021/12/14 06:26:12;;;;;;;34.58;16.60;;;;;;;;;;5047021;28;20065;-81
2021/12/14 06:28:38;;;;;;;34.20;16.98;;;;;;;;;;5038948;28;20140;-81
2021/12/14 06:31:04;;;;;;;35.05;16.02;;;;;;;;;;5042404;28;20132;-80
2021/12/14 06:33:32;;;;;;;33.55;16.30;;;;;;;;;;5047058;28;20058;-82
2021/12/14 06:46:35;;;;;;;35.67;17.20;;;;;;;;;;5069613;28;20819;-81
2021/12/14 06:49:01;;;;;;;44.78;23.38;;;;;;;;;;5064373;28;20139;-82
2021/12/14 06:51:32;;;;;;;35.67;18.08;;;;;;;;;;5054839;28;20053;-82
2021/12/14 06:54:01;;;;;;;36.38;19.20;;;;;;;;;;5074109;28;20045;-81
2021/12/14 06:56:29;;;;;;;32.20;18.38;;;;;;;;;;5060741;28;20053;-82
2021/12/14 06:59:04;;;;;;;36.58;18.88;;;;;;;;;;5054478;28;20080;-81
2021/12/14 07:01:51;;;;;;;37.92;19.27;;;;;;;;;;5047855;28;20073;-81
2021/12/14 07:04:20;;;;;;;35.53;16.30;;;;;;;;;;5053296;28;20120;-81
2021/12/14 07:06:48;;;;;;;34.80;17.25;;;;;;;;;;5047275;28;20049;-81
2021/12/14 07:09:16;;;;;;;37.08;17.38;;;;;;;;;;5070748;28;20159;-81
2021/12/14 07:11:48;;;;;;;38.33;17.65;;;;;;;;;;5050621;28;20131;-81
2021/12/14 07:14:22;;;;;;;33.25;17.05;;;;;;;;;;5062041;28;20992;-81
2021/12/14 07:16:48;;;;;;;33.75;17.08;;;;;;;;;;5050169;28;20107;-81
2021/12/14 07:19:15;;;;;;;36.25;17.42;;;;;;;;;;5067641;28;20276;-82
2021/12/14 07:21:46;;;;;;;36.00;16.33;;;;;;;;;;5052597;28;20092;-82
2021/12/14 07:24:22;;;;;;;36.08;16.88;;;;;;;;;;5052537;28;20516;-80
2021/12/14 07:26:49;;;;;;;32.65;16.52;;;;;;;;;;5048350;28;20583;-82
2021/12/14 07:29:24;;;;;;;36.45;17.58;;;;;;;;;;5049012;28;21025;-81
2021/12/14 07:31:51;;;;;;;34.38;17.17;;;;;;;;;;5052642;28;20057;-81
2021/12/14 07:34:20;;;;;;;36.45;16.52;;;;;;;;;;5058197;28;20044;-82
2021/12/14 07:36:47;;;;;;;34.78;16.90;;;;;;;;;;5081295;28;20080;-80
2021/12/14 07:39:17;;;;;;;34.20;16.25;;;;;;;;;;5077203;28;20053;-80
2021/12/14 07:41:46;;;;;;;33.00;16.25;;;;;;;;;;5079324;28;20622;-81
2021/12/14 07:44:15;;;;;;;37.88;17.40;;;;;;;;;;5076267;28;20081;-81
2021/12/14 07:46:43;;;;;;;34.20;16.10;;;;;;;;;;5050399;28;20068;-80
2021/12/14 07:49:25;;;;;;;34.72;16.60;;;;;;;;;;5073122;28;20064;-80
2021/12/14 07:52:12;;;;;;;35.55;16.90;;;;;;;;;;5051905;28;20049;-82
2021/12/14 07:55:00;;;;;;;39.08;17.83;;;;;;;;;;5049424;28;20103;-80
2021/12/14 07:57:28;;;;;;;38.20;17.08;;;;;;;;;;5048008;28;20103;-81
2021/12/14 07:59:57;;;;;;;37.35;17.73;;;;;;;;;;5051537;28;20111;-78
2021/12/14 08:02:40;;;;;;;58.85;30.02;;;;;;;;;;5080264;28;20034;-80
2021/12/14 08:05:13;;;;;;;33.47;16.30;;;;;;;;;;5051514;28;20052;-78
2021/12/14 08:07:43;;;;;;;36.88;17.38;;;;;;;;;;5067551;28;20053;-80
2021/12/14 08:10:24;;;;;;;35.78;17.10;;;;;;;;;;5072193;28;20045;-79
2021/12/14 08:12:53;;;;;;;39.17;16.95;;;;;;;;;;5053387;28;20348;-80
2021/12/14 08:15:25;;;;;;;37.63;18.50;;;;;;;;;;5050757;28;20467;-79
2021/12/14 08:18:04;;;;;;;34.72;17.85;;;;;;;;;;5074742;28;20088;-79
2021/12/14 08:20:31;;;;;;;38.97;19.38;;;;;;;;;;5052143;28;20080;-80
2021/12/14 08:23:09;;;;;;;34.65;18.42;;;;;;;;;;5057242;28;20030;-80
2021/12/14 08:25:35;;;;;;;37.40;17.90;;;;;;;;;;5051619;28;20087;-80
2021/12/14 08:28:06;;;;;;;35.17;17.23;;;;;;;;;;5054546;28;20095;-79
2021/12/14 08:30:33;;;;;;;38.67;19.52;;;;;;;;;;5075452;28;20782;-79
2021/12/14 08:33:00;;;;;;;34.67;16.63;;;;;;;;;;5053982;28;20767;-80
2021/12/14 08:35:27;;;;;;;37.35;17.05;;;;;;;;;;5070495;28;20072;-80
2021/12/14 08:37:58;;;;;;;37.38;17.42;;;;;;;;;;5074742;28;20107;-80
2021/12/14 08:40:28;;;;;;;32.17;16.00;;;;;;;;;;5054187;28;20577;-79
2021/12/14 08:43:03;;;;;;;36.00;17.23;;;;;;;;;;5065852;28;20899;-78
2021/12/14 08:45:33;;;;;;;34.97;17.27;;;;;;;;;;5052869;28;20164;-79
2021/12/14 08:48:03;;;;;;;37.17;18.33;;;;;;;;;;5047426;28;20083;-79
2021/12/14 08:50:31;;;;;;;36.03;16.40;;;;;;;;;;5048876;28;20041;-80
2021/12/14 08:52:58;;;;;;;39.25;17.00;;;;;;;;;;5053798;28;20432;-77
2021/12/14 08:55:27;;;;;;;32.80;16.33;;;;;;;;;;5055910;28;20514;-78
2021/12/14 08:57:54;;;;;;;38.85;17.88;;;;;;;;;;5049812;28;20057;-77
2021/12/14 09:00:23;;;;;;;39.70;17.05;;;;;;;;;;5048362;28;20088;-78
2021/12/14 09:02:53;;;;;;;33.10;16.27;;;;;;;;;;5068483;28;20134;-76
2021/12/14 09:05:26;;;;;;;37.13;17.40;;;;;;;;;;5071606;28;20145;-77
2021/12/14 09:07:55;;;;;;;34.25;16.95;;;;;;;;;;5040355;28;20496;-77
2021/12/14 09:10:23;;;;;;;38.72;17.17;;;;;;;;;;5050309;28;20099;-77
2021/12/14 09:12:51;;;;;;;32.50;16.08;;;;;;;;;;5052668;28;20061;-78
2021/12/14 09:15:23;;;;;;;38.72;18.02;;;;;;;;;;5070427;28;20087;-78
2021/12/14 09:17:51;;;;;;;39.38;20.10;;;;;;;;;;5070885;28;20531;-77
2021/12/14 09:20:50;;;;;;;43.30;21.30;;;;;;;;;;5048192;28;20058;-77
2021/12/14 09:23:18;;;;;;;45.28;21.50;;;;;;;;;;5020078;28;20108;-78
2021/12/14 09:25:45;;;;;;;36.05;18.58;;;;;;;;;;5048550;28;20079;-76
2021/12/14 09:28:13;;;;;;;40.58;19.27;;;;;;;;;;5052283;28;20084;-77
2021/12/14 09:30:43;;;;;;;38.08;18.55;;;;;;;;;;5072829;28;20103;-78
2021/12/14 09:33:11;;;;;;;37.30;18.08;;;;;;;;;;5079681;28;20060;-79
2021/12/14 09:35:38;;;;;;;35.70;17.42;;;;;;;;;;5057500;28;20099;-79
2021/12/14 09:38:06;;;;;;;37.53;18.02;;;;;;;;;;5074558;28;20084;-79
2021/12/14 09:40:36;;;;;;;37.53;17.45;;;;;;;;;;5054295;28;20072;-80
2021/12/14 09:43:03;;;;;;;36.80;17.20;;;;;;;;;;5070403;28;20107;-79
2021/12/14 09:45:33;;;;;;;36.30;17.40;;;;;;;;;;5053222;28;20057;-80
2021/12/14 09:48:01;;;;;;;38.15;17.52;;;;;;;;;;5050022;28;20092;-79
2021/12/14 09:50:29;;;;;;;39.20;18.05;;;;;;;;;;5069398;28;20054;-80
2021/12/14 09:52:57;;;;;;;39.38;17.40;;;;;;;;;;5054245;28;20088;-79
2021/12/14 09:55:27;;;;;;;38.67;17.95;;;;;;;;;;5054579;28;20053;-80
2021/12/14 09:57:55;;;;;;;42.50;17.73;;;;;;;;;;5072920;28;20049;-80
2021/12/14 10:00:27;;;;;;;42.80;19.05;;;;;;;;;;5047509;28;20276;-79
2021/12/14 10:02:55;;;;;;;38.00;18.13;;;;;;;;;;5047643;28;20108;-80
2021/12/14 10:05:24;;;;;;;44.75;19.48;;;;;;;;;;5054029;28;20057;-79
2021/12/14 10:07:54;;;;;;;40.38;19.58;;;;;;;;;;5052656;28;20053;-80
2021/12/14 10:10:24;;;;;;;41.90;19.27;;;;;;;;;;5070542;28;20036;-78
2021/12/14 10:12:53;;;;;;;38.35;19.00;;;;;;;;;;5070829;28;20092;-80
2021/12/14 10:15:20;;;;;;;43.20;19.10;;;;;;;;;;5070040;28;20049;-79
2021/12/14 10:17:47;;;;;;;43.20;19.20;;;;;;;;;;5070582;28;20165;-81
2021/12/14 10:20:17;;;;;;;40.53;19.55;;;;;;;;;;5070698;28;20067;-80
2021/12/14 10:22:45;;;;;;;46.00;20.30;;;;;;;;;;5050656;28;20061;-79
2021/12/14 10:25:14;;;;;;;49.20;21.05;;;;;;;;;;5054104;28;20057;-79
2021/12/14 10:27:41;;;;;;;52.28;20.35;;;;;;;;;;5070681;28;20085;-80
2021/12/14 10:30:15;;;;;;;51.10;21.00;;;;;;;;;;5071161;28;20065;-80
2021/12/14 10:32:42;;;;;;;55.35;21.65;;;;;;;;;;5045461;28;20585;-80
2021/12/14 10:35:11;;;;;;;49.22;21.10;;;;;;;;;;5043442;28;20089;-79
2021/12/14 10:38:07;;;;;;;48.97;21.95;;;;;;;;;;5052185;28;20057;-78
2021/12/14 10:43:22;;;;;;;45.70;20.98;;;;;;;;;;5063252;28;20072;-80
2021/12/14 10:45:51;;;;;;;51.28;23.38;;;;;;;;;;5045460;28;20424;-79
2021/12/14 10:48:19;;;;;;;51.20;22.38;;;;;;;;;;5067620;28;20519;-79
2021/12/14 10:50:47;;;;;;;47.58;21.63;;;;;;;;;;5068314;28;20053;-81
2021/12/14 10:53:14;;;;;;;51.67;22.52;;;;;;;;;;5071007;28;20108;-79
2021/12/14 10:55:51;;;;;;;48.72;22.23;;;;;;;;;;5053379;28;20053;-81
2021/12/14 10:58:19;;;;;;;51.20;21.80;;;;;;;;;;5049461;28;20057;-81
2021/12/14 11:00:53;;;;;;;51.58;22.95;;;;;;;;;;5053720;28;20053;-80
2021/12/14 11:03:24;;;;;;;53.28;22.98;;;;;;;;;;5049475;28;20053;-81
2021/12/14 11:05:53;;;;;;;52.13;23.00;;;;;;;;;;5067879;28;20053;-81
2021/12/14 11:11:21;;;;;;;59.30;28.70;;;;;;;;;;5032692;28;20053;-80
2021/12/14 11:13:55;;;;;;;51.75;24.15;;;;;;;;;;5050491;28;20053;-80
2021/12/14 11:16:34;;;;;;;63.22;30.08;;;;;;;;;;5069569;28;20057;-81
2021/12/14 11:19:04;;;;;;;79.10;35.90;;;;;;;;;;5051139;28;20050;-81
2021/12/14 11:21:31;;;;;;;65.07;28.58;;;;;;;;;;5047770;28;20119;-79
2021/12/14 11:23:57;;;;;;;60.97;25.48;;;;;;;;;;5067105;28;20045;-79
2021/12/14 11:26:34;;;;;;;58.03;24.83;;;;;;;;;;5052718;28;20139;-79
2021/12/14 11:29:13;;;;;;;59.05;26.00;;;;;;;;;;5052380;28;20045;-79
2021/12/14 11:31:45;;;;;;;62.60;28.00;;;;;;;;;;5055052;28;20038;-78
2021/12/14 11:34:29;;;;;;;60.35;26.10;;;;;;;;;;5051076;28;20060;-78
2021/12/14 11:37:02;;;;;;;65.15;26.60;;;;;;;;;;5052720;28;20053;-78
2021/12/14 11:39:34;;;;;;;60.55;24.80;;;;;;;;;;5060512;28;20091;-78
2021/12/14 11:42:20;;;;;;;60.03;26.63;;;;;;;;;;5049653;28;20041;-81
2021/12/14 11:44:50;;;;;;;61.55;24.70;;;;;;;;;;5047505;28;20091;-80
2021/12/14 11:47:46;;;;;;;57.17;24.90;;;;;;;;;;5054916;28;20057;-79
2021/12/14 11:50:12;;;;;;;58.63;24.58;;;;;;;;;;5064325;28;20060;-81
2021/12/14 11:52:57;;;;;;;64.30;25.58;;;;;;;;;;5052077;28;20092;-80
2021/12/14 11:55:44;;;;;;;63.00;26.35;;;;;;;;;;5062876;28;20961;-81
2021/12/14 11:58:17;;;;;;;66.63;30.98;;;;;;;;;;5075109;28;20875;-80
2021/12/14 12:00:49;;;;;;;73.00;30.70;;;;;;;;;;5076842;28;20052;-81
2021/12/14 12:03:19;;;;;;;65.40;28.40;;;;;;;;;;5051010;28;20488;-80
2021/12/14 12:06:08;;;;;;;69.15;28.40;;;;;;;;;;5070192;28;20100;-79
2021/12/14 12:11:33;;;;;;;63.58;28.42;;;;;;;;;;5068235;28;20057;-80
2021/12/14 12:14:00;;;;;;;69.05;28.80;;;;;;;;;;5056093;28;20064;-80
2021/12/14 12:16:27;;;;;;;62.13;28.25;;;;;;;;;;5067820;28;20591;-78
2021/12/14 12:19:09;;;;;;;77.00;29.75;;;;;;;;;;5054830;28;20061;-80
2021/12/14 12:21:36;;;;;;;70.03;28.30;;;;;;;;;;5073843;28;20053;-80
2021/12/14 12:24:03;;;;;;;69.32;28.98;;;;;;;;;;5075348;28;20138;-80
2021/12/14 12:26:30;;;;;;;68.65;27.92;;;;;;;;;;5055259;28;20072;-80
2021/12/14 12:29:02;;;;;;;69.53;27.10;;;;;;;;;;5050489;28;20057;-80
2021/12/14 12:31:32;;;;;;;68.93;27.20;;;;;;;;;;5053557;28;20068;-79
2021/12/14 12:33:59;;;;;;;72.97;28.15;;;;;;;;;;5053150;28;20055;-79
2021/12/14 12:36:38;;;;;;;65.38;25.63;;;;;;;;;;5052354;28;20077;-80
2021/12/14 12:39:04;;;;;;;65.70;26.23;;;;;;;;;;5053083;28;20057;-80
2021/12/14 12:41:46;;;;;;;71.03;25.45;;;;;;;;;;5068849;28;20881;-79
2021/12/14 12:44:24;;;;;;;62.03;24.50;;;;;;;;;;5056573;28;20123;-79
2021/12/14 12:46:56;;;;;;;66.65;25.75;;;;;;;;;;5072945;28;20057;-78
2021/12/14 12:49:27;;;;;;;75.63;26.05;;;;;;;;;;5072801;28;20064;-80
2021/12/14 12:51:55;;;;;;;70.05;25.83;;;;;;;;;;5054150;28;20139;-79
2021/12/14 12:54:24;;;;;;;64.10;25.30;;;;;;;;;;5053479;28;20053;-81
2021/12/14 12:57:11;;;;;;;63.78;25.98;;;;;;;;;;5053569;28;20056;-80
2021/12/14 12:59:41;;;;;;;71.63;26.85;;;;;;;;;;5044439;28;20153;-80
2021/12/14 13:02:31;;;;;;;67.35;25.13;;;;;;;;;;5054578;28;20056;-78
2021/12/14 13:05:00;;;;;;;63.67;25.43;;;;;;;;;;5038126;28;20088;-78
2021/12/14 13:07:32;;;;;;;62.70;25.20;;;;;;;;;;5075096;28;20052;-79
2021/12/14 13:10:09;;;;;;;65.63;24.65;;;;;;;;;;5069151;28;20531;-81
2021/12/14 13:12:38;;;;;;;72.35;26.05;;;;;;;;;;5072865;28;20049;-79
2021/12/14 13:15:05;;;;;;;83.93;29.20;;;;;;;;;;5071106;28;20049;-79
2021/12/14 13:17:31;;;;;;;73.50;26.98;;;;;;;;;;5055619;28;20084;-79
2021/12/14 13:19:59;;;;;;;82.00;33.80;;;;;;;;;;5047026;28;20065;-78
2021/12/14 13:22:25;;;;;;;70.15;27.58;;;;;;;;;;5053573;28;20156;-77
2021/12/14 13:24:51;;;;;;;72.15;28.33;;;;;;;;;;5055211;28;20049;-78
2021/12/14 13:27:24;;;;;;;76.82;28.58;;;;;;;;;;5041381;28;20092;-80
2021/12/14 13:29:50;;;;;;;81.85;27.92;;;;;;;;;;5055212;28;20080;-81
2021/12/14 13:32:20;;;;;;;77.93;27.90;;;;;;;;;;5045248;28;20528;-80
2021/12/14 13:34:59;;;;;;;84.07;33.03;;;;;;;;;;5072448;28;20582;-80
2021/12/14 13:37:28;;;;;;;81.53;31.45;;;;;;;;;;5054446;28;20084;-83
2021/12/14 13:39:55;;;;;;;67.40;24.25;;;;;;;;;;5057639;28;20067;-81
2021/12/14 13:42:29;;;;;;;74.13;27.95;;;;;;;;;;5047526;28;20089;-81
2021/12/14 13:44:55;;;;;;;70.00;27.60;;;;;;;;;;5050912;28;20578;-83
2021/12/14 13:47:24;;;;;;;69.78;26.10;;;;;;;;;;5057145;28;20065;-80
2021/12/14 13:49:51;;;;;;;69.13;26.60;;;;;;;;;;5074127;28;20049;-79
2021/12/14 13:52:18;;;;;;;68.18;24.13;;;;;;;;;;5070407;28;20527;-80
2021/12/14 13:55:03;;;;;;;69.32;25.10;;;;;;;;;;5037509;28;20099;-81
2021/12/14 13:57:29;;;;;;;65.88;23.55;;;;;;;;;;5049203;28;20068;-80
2021/12/14 13:59:59;;;;;;;57.38;22.77;;;;;;;;;;5070516;28;20084;-81
2021/12/14 14:02:25;;;;;;;61.92;24.33;;;;;;;;;;5069296;28;20048;-79
2021/12/14 14:04:52;;;;;;;62.28;23.85;;;;;;;;;;5050409;28;20144;-80
2021/12/14 14:07:18;;;;;;;67.90;24.60;;;;;;;;;;5071437;28;20056;-79
2021/12/14 14:09:45;;;;;;;60.78;23.88;;;;;;;;;;5069120;28;20088;-78
2021/12/14 14:12:16;;;;;;;67.15;23.70;;;;;;;;;;5052612;28;20267;-78
2021/12/14 14:14:43;;;;;;;65.28;26.15;;;;;;;;;;5046773;28;20471;-78
2021/12/14 14:17:12;;;;;;;64.70;24.77;;;;;;;;;;5069223;28;20100;-77
2021/12/14 14:19:44;;;;;;;62.70;22.02;;;;;;;;;;5053157;28;20099;-77
2021/12/14 14:22:18;;;;;;;65.22;23.65;;;;;;;;;;5052642;28;20092;-76
2021/12/14 14:24:54;;;;;;;67.45;22.20;;;;;;;;;;5051467;28;22050;-78
2021/12/14 14:27:32;;;;;;;70.78;23.42;;;;;;;;;;5069339;28;20055;-77
2021/12/14 14:29:59;;;;;;;69.50;23.75;;;;;;;;;;5046751;28;20057;-77
2021/12/14 14:32:30;;;;;;;63.97;23.95;;;;;;;;;;5051728;28;20076;-77
2021/12/14 14:34:58;;;;;;;75.05;24.50;;;;;;;;;;5050347;28;20072;-77
2021/12/14 14:37:27;;;;;;;76.43;25.40;;;;;;;;;;5052806;28;20049;-78
2021/12/14 14:40:05;;;;;;;79.93;25.58;;;;;;;;;;5068166;28;20061;-75
2021/12/14 14:42:33;;;;;;;72.10;24.98;;;;;;;;;;5069437;28;20061;-78
2021/12/14 14:45:11;;;;;;;85.35;27.27;;;;;;;;;;5051438;28;20064;-78
2021/12/14 14:47:38;;;;;;;78.60;27.02;;;;;;;;;;5070480;28;20088;-75
2021/12/14 14:50:24;;;;;;;81.30;27.10;;;;;;;;;;5046278;28;20842;-77
2021/12/14 14:52:50;;;;;;;87.60;27.70;;;;;;;;;;5050044;28;20052;-76
2021/12/14 14:55:22;;;;;;;82.95;30.23;;;;;;;;;;5064160;28;20056;-77
2021/12/14 14:57:48;;;;;;;84.88;29.13;;;;;;;;;;5069447;28;20578;-75
2021/12/14 15:00:39;;;;;;;95.93;31.42;;;;;;;;;;5050543;28;20088;-77
2021/12/14 15:03:06;;;;;;;;;;;;;;;;;;5071683;28;20184;-77
2021/12/14 15:05:42;;;;;;;95.75;28.63;;;;;;;;;;5067023;28;48415;-76
2021/12/14 15:08:18;;;;;;;96.15;27.73;;;;;;;;;;5067999;28;20053;-78
2021/12/14 15:10:45;;;;;;;104.93;33.97;;;;;;;;;;5048829;28;20132;-76
2021/12/14 15:13:14;;;;;;;107.13;28.90;;;;;;;;;;5053401;28;20049;-75
2021/12/14 15:15:54;;;;;;;90.75;29.92;;;;;;;;;;5051283;28;20516;-78
2021/12/14 15:18:41;;;;;;;99.43;32.90;;;;;;;;;;5047295;28;20084;-79
2021/12/14 15:21:26;;;;;;;99.07;32.25;;;;;;;;;;5018424;28;20527;-77